Time;durP1;ratioP1;P1;durP2;ratioP2;P2;SDS_P1;SDS_P2;PMS_P1;PMS_P2;Temp;Humidity;BMP_temperature;BMP_pressure;BME280_temperature;BME280_humidity;BME280_pressure;Samples;Min_cycle;Max_cycle;Signal;HPM_P1;HPM_P2
2023/06/03 00:01:41;;;;;;;5.93;3.83;;;;;;;;;;5032911;28;20211;-81
2023/06/03 00:04:11;;;;;;;4.63;2.93;;;;;;;;;;5028162;28;20218;-81
2023/06/03 00:06:39;;;;;;;4.33;2.80;;;;;;;;;;5027400;28;20630;-81
2023/06/03 00:09:06;;;;;;;3.87;3.00;;;;;;;;;;5031954;28;20318;-81
2023/06/03 00:11:35;;;;;;;4.97;3.00;;;;;;;;;;5024689;28;20313;-81
2023/06/03 00:14:02;;;;;;;6.63;3.30;;;;;;;;;;5033103;28;20599;-81
2023/06/03 00:16:32;;;;;;;3.00;2.70;;;;;;;;;;5031767;28;20242;-81
2023/06/03 00:18:59;;;;;;;5.67;2.87;;;;;;;;;;5032545;28;20735;-81
2023/06/03 00:21:27;;;;;;;5.30;2.70;;;;;;;;;;5025215;28;20704;-81
2023/06/03 00:23:56;;;;;;;4.00;2.80;;;;;;;;;;5032299;28;20210;-81
2023/06/03 00:26:23;;;;;;;7.20;2.87;;;;;;;;;;5031654;28;20231;-81
2023/06/03 00:28:50;;;;;;;5.13;2.87;;;;;;;;;;5014675;28;20231;-81
2023/06/03 00:31:17;;;;;;;4.57;3.00;;;;;;;;;;5030142;28;20264;-81
2023/06/03 00:33:45;;;;;;;4.77;3.10;;;;;;;;;;5032216;28;20692;-81
2023/06/03 00:36:12;;;;;;;3.23;2.70;;;;;;;;;;5031220;28;20871;-81
2023/06/03 00:38:39;;;;;;;3.93;2.87;;;;;;;;;;5032132;28;20223;-81
2023/06/03 00:41:07;;;;;;;4.77;2.97;;;;;;;;;;5030029;28;20229;-81
2023/06/03 00:43:34;;;;;;;3.17;2.70;;;;;;;;;;5032628;28;20214;-81
2023/06/03 00:46:01;;;;;;;7.07;2.87;;;;;;;;;;5030605;28;20223;-81
2023/06/03 00:48:29;;;;;;;5.40;2.60;;;;;;;;;;5023238;28;20767;-81
2023/06/03 00:50:56;;;;;;;4.50;2.53;;;;;;;;;;5031591;28;20276;-81
2023/06/03 00:53:23;;;;;;;4.47;2.70;;;;;;;;;;5023343;28;20213;-81
2023/06/03 00:55:50;;;;;;;4.90;2.67;;;;;;;;;;5031127;28;20231;-81
2023/06/03 00:58:18;;;;;;;4.70;2.50;;;;;;;;;;5031562;28;20230;-81
2023/06/03 01:00:45;;;;;;;3.83;2.80;;;;;;;;;;5029672;28;20234;-81
2023/06/03 01:03:15;;;;;;;4.23;2.70;;;;;;;;;;5031420;28;20206;-80
2023/06/03 01:05:45;;;;;;;6.63;2.70;;;;;;;;;;5030966;28;20238;-81
2023/06/03 01:08:20;;;;;;;3.43;2.60;;;;;;;;;;5024741;28;20658;-80
2023/06/03 01:10:51;;;;;;;2.90;2.60;;;;;;;;;;5025172;28;20230;-80
2023/06/03 01:13:22;;;;;;;4.53;2.63;;;;;;;;;;5029758;28;20210;-80
2023/06/03 01:15:51;;;;;;;4.20;3.03;;;;;;;;;;5025279;28;20230;-80
2023/06/03 01:18:19;;;;;;;5.60;2.87;;;;;;;;;;5023222;28;20244;-81
2023/06/03 01:20:48;;;;;;;5.70;2.87;;;;;;;;;;5029658;28;20318;-81
2023/06/03 01:23:23;;;;;;;11.10;4.30;;;;;;;;;;5030507;28;20214;-80
2023/06/03 01:25:52;;;;;;;6.90;3.10;;;;;;;;;;5025232;28;20276;-81
2023/06/03 01:28:20;;;;;;;6.70;3.50;;;;;;;;;;5022524;28;20242;-81
2023/06/03 01:30:47;;;;;;;6.83;2.87;;;;;;;;;;5030677;28;20223;-80
2023/06/03 01:33:14;;;;;;;5.73;5.07;;;;;;;;;;5031242;28;20218;-81
2023/06/03 01:35:42;;;;;;;4.80;2.87;;;;;;;;;;5026081;28;20227;-80
2023/06/03 01:38:09;;;;;;;7.00;2.90;;;;;;;;;;5027185;28;20237;-81
2023/06/03 01:40:38;;;;;;;5.67;3.07;;;;;;;;;;5023314;28;20242;-80
2023/06/03 01:43:05;;;;;;;4.30;2.87;;;;;;;;;;5031422;28;20214;-80
2023/06/03 01:45:32;;;;;;;4.33;3.00;;;;;;;;;;5028057;28;20227;-80
2023/06/03 01:47:59;;;;;;;4.93;3.30;;;;;;;;;;5024212;28;20317;-80
2023/06/03 01:50:26;;;;;;;4.07;2.60;;;;;;;;;;5027684;28;20695;-81
2023/06/03 01:52:53;;;;;;;3.80;2.77;;;;;;;;;;5025379;28;20564;-81
2023/06/03 01:55:20;;;;;;;4.13;2.87;;;;;;;;;;5030110;28;20226;-81
2023/06/03 01:57:49;;;;;;;7.07;3.17;;;;;;;;;;5030740;28;20250;-81
2023/06/03 02:00:17;;;;;;;4.37;3.03;;;;;;;;;;5030242;28;20309;-80
2023/06/03 02:02:44;;;;;;;3.90;3.03;;;;;;;;;;5030895;28;20277;-80
2023/06/03 02:05:11;;;;;;;6.47;3.30;;;;;;;;;;5030142;28;20230;-81
2023/06/03 02:07:38;;;;;;;6.17;3.40;;;;;;;;;;5030757;28;20237;-81
2023/06/03 02:10:06;;;;;;;4.53;3.30;;;;;;;;;;5026442;28;20233;-80
2023/06/03 02:12:33;;;;;;;3.80;3.00;;;;;;;;;;5030346;28;20205;-80
2023/06/03 02:15:02;;;;;;;4.13;3.20;;;;;;;;;;5030294;28;20277;-80
2023/06/03 02:17:29;;;;;;;4.77;3.20;;;;;;;;;;5030097;28;20256;-80
2023/06/03 02:19:57;;;;;;;6.07;3.37;;;;;;;;;;5024038;28;20284;-80
2023/06/03 02:22:26;;;;;;;6.67;3.67;;;;;;;;;;5030600;28;20211;-81
2023/06/03 02:24:56;;;;;;;4.70;3.27;;;;;;;;;;5033892;28;20226;-80
2023/06/03 02:27:24;;;;;;;5.73;3.33;;;;;;;;;;5034530;28;20230;-80
2023/06/03 02:29:51;;;;;;;7.67;3.50;;;;;;;;;;5033807;28;20237;-80
2023/06/03 02:32:20;;;;;;;7.13;3.20;;;;;;;;;;5034399;28;20214;-80
2023/06/03 02:34:47;;;;;;;5.17;3.50;;;;;;;;;;5034101;28;20226;-80
2023/06/03 02:37:15;;;;;;;4.10;3.10;;;;;;;;;;5034376;28;20206;-80
2023/06/03 02:39:42;;;;;;;7.87;3.33;;;;;;;;;;5026339;28;20317;-80
2023/06/03 02:42:10;;;;;;;6.17;2.87;;;;;;;;;;5034126;28;20207;-80
2023/06/03 02:44:37;;;;;;;6.63;3.43;;;;;;;;;;5032258;28;20226;-80
2023/06/03 02:47:05;;;;;;;3.33;2.90;;;;;;;;;;5034014;28;20217;-81
2023/06/03 02:49:33;;;;;;;4.93;3.13;;;;;;;;;;5033392;28;20704;-81
2023/06/03 02:52:00;;;;;;;5.53;3.10;;;;;;;;;;5034263;28;20210;-80
2023/06/03 02:54:27;;;;;;;5.10;3.30;;;;;;;;;;5032863;28;20211;-80
2023/06/03 02:56:55;;;;;;;6.50;3.60;;;;;;;;;;5028137;28;20293;-80
2023/06/03 02:59:22;;;;;;;4.70;3.30;;;;;;;;;;5027890;28;20222;-81
2023/06/03 03:01:49;;;;;;;8.17;3.30;;;;;;;;;;5030599;28;20610;-80
2023/06/03 03:04:16;;;;;;;7.00;3.40;;;;;;;;;;5025046;28;20202;-80
2023/06/03 03:06:45;;;;;;;5.27;3.40;;;;;;;;;;5029132;28;20704;-80
2023/06/03 03:09:12;;;;;;;8.67;3.50;;;;;;;;;;5025889;28;20280;-81
2023/06/03 03:11:39;;;;;;;6.57;3.70;;;;;;;;;;5033640;28;20740;-80
2023/06/03 03:14:07;;;;;;;5.17;3.43;;;;;;;;;;5033450;28;20217;-80
2023/06/03 03:16:35;;;;;;;6.43;4.20;;;;;;;;;;5026416;28;20235;-80
2023/06/03 03:19:02;;;;;;;5.67;3.43;;;;;;;;;;5033639;28;20712;-80
2023/06/03 03:21:29;;;;;;;5.53;3.67;;;;;;;;;;5025050;28;20242;-80
2023/06/03 03:23:57;;;;;;;5.90;3.67;;;;;;;;;;5033516;28;20297;-80
2023/06/03 03:26:26;;;;;;;6.53;3.80;;;;;;;;;;5033013;28;20428;-80
2023/06/03 03:28:53;;;;;;;7.70;4.07;;;;;;;;;;5033640;28;20226;-80
2023/06/03 03:31:21;;;;;;;6.73;3.47;;;;;;;;;;5029389;28;20292;-80
2023/06/03 03:33:49;;;;;;;4.37;3.40;;;;;;;;;;5033510;28;20210;-80
2023/06/03 03:36:20;;;;;;;6.47;3.40;;;;;;;;;;5024596;28;20231;-80
2023/06/03 03:38:47;;;;;;;5.97;3.50;;;;;;;;;;5033596;28;20250;-80
2023/06/03 03:41:15;;;;;;;5.80;3.53;;;;;;;;;;5032586;28;20709;-80
2023/06/03 03:43:42;;;;;;;4.13;3.50;;;;;;;;;;5025505;28;20687;-80
2023/06/03 03:46:10;;;;;;;5.70;3.47;;;;;;;;;;5032749;28;20598;-80
2023/06/03 03:48:37;;;;;;;7.57;4.13;;;;;;;;;;5032837;28;20234;-80
2023/06/03 03:51:04;;;;;;;6.60;3.70;;;;;;;;;;5031850;28;20716;-80
2023/06/03 03:53:32;;;;;;;6.63;3.87;;;;;;;;;;5032742;28;20210;-80
2023/06/03 03:55:59;;;;;;;10.40;4.23;;;;;;;;;;5024327;28;20272;-81
2023/06/03 03:58:29;;;;;;;8.80;4.40;;;;;;;;;;5029233;28;20230;-80
2023/06/03 04:00:57;;;;;;;5.30;3.77;;;;;;;;;;5031871;28;20321;-80
2023/06/03 04:03:25;;;;;;;4.47;3.30;;;;;;;;;;5028420;28;20241;-80
2023/06/03 04:05:52;;;;;;;4.83;3.27;;;;;;;;;;5019679;28;20227;-80
2023/06/03 04:08:32;;;;;;;6.53;4.17;;;;;;;;;;5029237;28;20226;-81
2023/06/03 04:10:59;;;;;;;5.60;3.83;;;;;;;;;;5022650;28;20657;-81
2023/06/03 04:13:28;;;;;;;6.53;3.60;;;;;;;;;;5031288;28;20207;-81
2023/06/03 04:16:00;;;;;;;8.27;3.60;;;;;;;;;;5028097;28;20242;-81
2023/06/03 04:18:28;;;;;;;6.93;3.73;;;;;;;;;;5032122;28;20261;-81
2023/06/03 04:20:59;;;;;;;6.90;3.97;;;;;;;;;;5032311;28;20231;-80
2023/06/03 04:23:28;;;;;;;9.43;4.57;;;;;;;;;;5032179;28;20604;-81
2023/06/03 04:25:55;;;;;;;6.27;3.73;;;;;;;;;;5031326;28;20276;-81
2023/06/03 04:28:23;;;;;;;11.43;5.70;;;;;;;;;;5032130;28;20223;-81
2023/06/03 04:30:51;;;;;;;6.83;4.50;;;;;;;;;;5031959;28;20241;-81
2023/06/03 04:33:18;;;;;;;5.07;4.37;;;;;;;;;;5032487;28;20210;-81
2023/06/03 04:35:45;;;;;;;5.07;3.97;;;;;;;;;;5024899;28;20234;-80
2023/06/03 04:38:12;;;;;;;8.53;4.30;;;;;;;;;;5032299;28;20226;-80
2023/06/03 04:40:39;;;;;;;6.57;4.10;;;;;;;;;;5031294;28;20238;-80
2023/06/03 04:43:07;;;;;;;7.20;4.07;;;;;;;;;;5031513;28;20214;-80
2023/06/03 04:45:34;;;;;;;8.10;4.30;;;;;;;;;;5030857;28;20599;-80
2023/06/03 04:48:03;;;;;;;11.47;4.00;;;;;;;;;;5032073;28;20233;-80
2023/06/03 04:50:35;;;;;;;7.00;4.43;;;;;;;;;;5031160;28;20230;-80
2023/06/03 04:53:02;;;;;;;8.13;4.17;;;;;;;;;;5026907;28;20210;-79
2023/06/03 04:55:31;;;;;;;7.17;3.80;;;;;;;;;;5028136;28;20264;-79
2023/06/03 04:58:00;;;;;;;4.70;4.20;;;;;;;;;;5031013;28;20237;-80
2023/06/03 05:00:27;;;;;;;5.13;4.03;;;;;;;;;;5029096;28;20257;-83
2023/06/03 05:02:59;;;;;;;7.70;4.30;;;;;;;;;;5032007;28;20198;-83
2023/06/03 05:05:28;;;;;;;5.63;3.73;;;;;;;;;;5022679;28;20234;-82
2023/06/03 05:07:55;;;;;;;6.57;3.97;;;;;;;;;;5022782;28;20234;-82
2023/06/03 05:10:22;;;;;;;7.70;4.40;;;;;;;;;;5027476;28;20226;-83
2023/06/03 05:12:49;;;;;;;6.00;4.20;;;;;;;;;;5020541;28;20566;-83
2023/06/03 05:15:17;;;;;;;7.03;4.10;;;;;;;;;;5027319;28;20247;-83
2023/06/03 05:17:44;;;;;;;6.30;4.30;;;;;;;;;;5023234;28;20234;-82
2023/06/03 05:20:11;;;;;;;8.37;3.93;;;;;;;;;;5031826;28;20223;-82
2023/06/03 05:22:40;;;;;;;4.83;3.77;;;;;;;;;;5030617;28;20207;-82
2023/06/03 05:25:07;;;;;;;6.40;3.80;;;;;;;;;;5024458;28;20234;-83
2023/06/03 05:27:34;;;;;;;5.83;3.67;;;;;;;;;;5021575;28;20227;-83
2023/06/03 05:30:02;;;;;;;7.40;3.63;;;;;;;;;;5031040;28;20230;-82
2023/06/03 05:32:29;;;;;;;5.57;3.80;;;;;;;;;;5026166;28;20301;-81
2023/06/03 05:34:56;;;;;;;5.83;3.70;;;;;;;;;;5025701;28;20227;-86
2023/06/03 05:37:23;;;;;;;6.40;3.97;;;;;;;;;;5020022;28;20226;-86
2023/06/03 05:39:51;;;;;;;7.23;4.00;;;;;;;;;;5023724;28;20225;-87
2023/06/03 05:42:18;;;;;;;4.37;3.57;;;;;;;;;;5031448;28;20208;-86
2023/06/03 05:44:46;;;;;;;4.67;3.37;;;;;;;;;;5030277;28;20230;-86
2023/06/03 05:47:13;;;;;;;4.90;3.40;;;;;;;;;;5023222;28;20719;-86
2023/06/03 05:49:40;;;;;;;6.57;3.33;;;;;;;;;;5012389;28;20605;-86
2023/06/03 05:52:07;;;;;;;8.47;3.70;;;;;;;;;;5018282;28;20569;-86
2023/06/03 05:54:34;;;;;;;5.67;3.80;;;;;;;;;;5030502;28;20585;-87
2023/06/03 05:57:03;;;;;;;4.87;3.20;;;;;;;;;;5031601;28;20211;-86
2023/06/03 05:59:30;;;;;;;4.43;3.23;;;;;;;;;;5022179;28;20242;-86
2023/06/03 06:01:57;;;;;;;6.17;3.70;;;;;;;;;;5024876;28;20563;-88
2023/06/03 06:04:25;;;;;;;7.77;3.40;;;;;;;;;;5020836;28;20611;-86
2023/06/03 06:06:52;;;;;;;5.13;3.37;;;;;;;;;;5019183;28;20210;-87
2023/06/03 06:09:20;;;;;;;4.90;2.63;;;;;;;;;;5029312;28;20230;-87
2023/06/03 06:11:47;;;;;;;4.27;2.83;;;;;;;;;;5020463;28;20231;-87
2023/06/03 06:14:15;;;;;;;7.10;3.23;;;;;;;;;;5028177;28;20207;-88
2023/06/03 06:16:44;;;;;;;3.43;2.60;;;;;;;;;;5031330;28;20557;-91
2023/06/03 06:19:11;;;;;;;4.17;2.70;;;;;;;;;;5031415;28;20233;-87
2023/06/03 06:21:38;;;;;;;7.63;3.03;;;;;;;;;;5031385;28;20238;-88
2023/06/03 06:24:05;;;;;;;6.40;2.57;;;;;;;;;;5031705;28;20238;-86
2023/06/03 06:26:32;;;;;;;5.03;3.10;;;;;;;;;;5031123;28;20211;-88
2023/06/03 06:28:59;;;;;;;2.93;2.20;;;;;;;;;;5032944;28;20223;-89
2023/06/03 06:31:28;;;;;;;4.57;2.60;;;;;;;;;;5030361;28;20231;-85
2023/06/03 06:33:55;;;;;;;2.50;2.30;;;;;;;;;;5023163;28;20207;-87
2023/06/03 06:36:32;;;;;;;4.37;3.07;;;;;;;;;;5022514;28;20286;-86
2023/06/03 06:38:59;;;;;;;3.20;2.30;;;;;;;;;;5024363;28;20226;-87
2023/06/03 06:41:27;;;;;;;6.93;2.40;;;;;;;;;;5030673;28;20227;-86
2023/06/03 06:43:54;;;;;;;3.27;2.13;;;;;;;;;;5026883;28;20212;-87
2023/06/03 06:46:21;;;;;;;4.50;2.47;;;;;;;;;;5018470;28;20233;-87
2023/06/03 06:48:49;;;;;;;3.67;2.43;;;;;;;;;;5027815;28;20290;-85
2023/06/03 06:51:19;;;;;;;2.57;2.37;;;;;;;;;;5025820;28;20727;-86
2023/06/03 06:53:48;;;;;;;3.07;2.50;;;;;;;;;;5030876;28;20265;-86
2023/06/03 06:56:15;;;;;;;3.90;2.57;;;;;;;;;;5026828;28;20697;-87
2023/06/03 06:58:42;;;;;;;3.00;2.23;;;;;;;;;;5030483;28;20227;-86
2023/06/03 07:01:10;;;;;;;4.33;2.70;;;;;;;;;;5030600;28;20227;-86
2023/06/03 07:03:37;;;;;;;8.70;2.50;;;;;;;;;;5029632;28;20347;-86
2023/06/03 07:06:06;;;;;;;2.60;2.40;;;;;;;;;;5022343;28;20713;-89
2023/06/03 07:08:33;;;;;;;4.20;2.60;;;;;;;;;;5025875;28;20234;-88
2023/06/03 07:11:01;;;;;;;2.40;2.20;;;;;;;;;;5029574;28;20573;-88
2023/06/03 07:13:28;;;;;;;3.37;2.30;;;;;;;;;;5023176;28;20219;-85
2023/06/03 07:15:56;;;;;;;2.63;2.42;;;;;;;;;;5030777;28;20245;-87
2023/06/03 07:18:25;;;;;;;3.03;2.47;;;;;;;;;;5031388;28;20235;-86
2023/06/03 07:20:52;;;;;;;4.22;2.35;;;;;;;;;;5025350;28;20227;-87
2023/06/03 07:23:22;;;;;;;3.05;2.25;;;;;;;;;;5023889;28;20215;-87
2023/06/03 07:25:50;;;;;;;4.18;2.25;;;;;;;;;;5033251;28;20245;-87
2023/06/03 07:28:17;;;;;;;2.80;2.20;;;;;;;;;;5033787;28;20743;-86
2023/06/03 07:30:45;;;;;;;3.53;2.30;;;;;;;;;;5033333;28;20230;-86
2023/06/03 07:33:24;;;;;;;3.80;2.75;;;;;;;;;;5027840;28;20204;-87
2023/06/03 07:35:53;;;;;;;4.05;2.47;;;;;;;;;;5032809;28;20242;-87
2023/06/03 07:38:32;;;;;;;3.08;2.30;;;;;;;;;;5025816;28;20310;-86
2023/06/03 07:40:59;;;;;;;4.13;2.15;;;;;;;;;;5033632;28;20222;-86
2023/06/03 07:43:26;;;;;;;2.95;2.50;;;;;;;;;;5034012;28;20245;-85
2023/06/03 07:45:53;;;;;;;2.53;2.10;;;;;;;;;;5029642;28;20227;-84
2023/06/03 07:48:21;;;;;;;3.10;2.55;;;;;;;;;;5028981;28;20235;-86
2023/06/03 07:50:48;;;;;;;3.67;2.85;;;;;;;;;;5030210;28;20234;-82
2023/06/03 07:53:20;;;;;;;3.75;2.60;;;;;;;;;;5028113;28;20210;-87
2023/06/03 07:55:48;;;;;;;3.97;2.40;;;;;;;;;;5022396;28;20226;-85
2023/06/03 07:58:16;;;;;;;3.35;2.38;;;;;;;;;;5019983;28;20888;-86
2023/06/03 08:00:44;;;;;;;3.08;2.70;;;;;;;;;;5024803;28;20226;-83
2023/06/03 08:03:13;;;;;;;4.30;2.58;;;;;;;;;;5033561;28;20207;-85
2023/06/03 08:05:41;;;;;;;8.80;2.90;;;;;;;;;;5032823;28;20234;-86
2023/06/03 08:08:10;;;;;;;3.08;2.53;;;;;;;;;;5025243;28;20237;-85
2023/06/03 08:10:37;;;;;;;3.15;2.53;;;;;;;;;;5024461;28;20696;-84
2023/06/03 08:13:06;;;;;;;5.15;2.50;;;;;;;;;;5028767;28;20218;-84
2023/06/03 08:15:36;;;;;;;4.30;3.33;;;;;;;;;;5026541;28;20233;-84
2023/06/03 08:18:05;;;;;;;5.78;2.85;;;;;;;;;;5024607;28;20233;-85
2023/06/03 08:20:33;;;;;;;2.90;2.50;;;;;;;;;;5024379;28;20284;-86
2023/06/03 08:23:00;;;;;;;2.67;2.45;;;;;;;;;;5024942;28;20226;-86
2023/06/03 08:25:28;;;;;;;3.05;2.40;;;;;;;;;;5016540;28;20227;-85
2023/06/03 08:27:55;;;;;;;5.40;3.33;;;;;;;;;;5016330;28;20238;-85
2023/06/03 08:30:24;;;;;;;5.65;2.38;;;;;;;;;;5026028;28;20231;-86
2023/06/03 08:32:52;;;;;;;6.65;2.20;;;;;;;;;;5031941;28;20214;-86
2023/06/03 08:35:21;;;;;;;4.63;2.67;;;;;;;;;;5022486;28;20346;-84
2023/06/03 08:37:48;;;;;;;5.72;2.40;;;;;;;;;;5023291;28;20246;-86
2023/06/03 08:40:16;;;;;;;7.65;2.40;;;;;;;;;;5028688;28;20231;-83
2023/06/03 08:42:44;;;;;;;3.88;2.72;;;;;;;;;;5024237;28;20207;-86
2023/06/03 08:45:12;;;;;;;2.88;2.30;;;;;;;;;;5026948;28;20230;-85
2023/06/03 08:47:48;;;;;;;2.70;1.88;;;;;;;;;;5012969;28;20231;-82
2023/06/03 08:50:18;;;;;;;4.65;2.28;;;;;;;;;;5026308;28;20226;-83
2023/06/03 08:52:46;;;;;;;2.95;2.63;;;;;;;;;;5022568;28;20223;-84
2023/06/03 08:55:13;;;;;;;4.60;2.50;;;;;;;;;;5018280;28;20231;-84
2023/06/03 08:57:44;;;;;;;5.45;2.70;;;;;;;;;;5028578;28;20720;-81
2023/06/03 09:00:14;;;;;;;4.95;2.55;;;;;;;;;;5016331;28;20230;-83
2023/06/03 09:02:41;;;;;;;2.50;2.30;;;;;;;;;;5032413;28;20577;-86
2023/06/03 09:05:10;;;;;;;7.88;2.72;;;;;;;;;;5023526;28;20716;-87
2023/06/03 09:07:38;;;;;;;4.80;2.60;;;;;;;;;;5021452;28;20231;-86
2023/06/03 09:10:05;;;;;;;4.18;2.55;;;;;;;;;;5015254;28;20235;-88
2023/06/03 09:12:38;;;;;;;3.03;2.33;;;;;;;;;;5015914;28;20238;-86
2023/06/03 09:15:07;;;;;;;3.85;2.33;;;;;;;;;;5026600;28;20700;-87
2023/06/03 09:17:37;;;;;;;4.40;2.40;;;;;;;;;;5024148;28;20234;-89
2023/06/03 09:20:06;;;;;;;5.18;2.63;;;;;;;;;;5024968;28;20223;-88
2023/06/03 09:22:36;;;;;;;6.55;2.38;;;;;;;;;;5024719;28;20211;-90
2023/06/03 09:25:05;;;;;;;2.58;2.15;;;;;;;;;;5027948;28;20229;-88
2023/06/03 09:27:33;;;;;;;3.42;2.30;;;;;;;;;;5021092;28;20715;-88
2023/06/03 09:30:05;;;;;;;4.05;2.67;;;;;;;;;;5021911;28;20230;-88
2023/06/03 09:32:33;;;;;;;3.17;2.45;;;;;;;;;;5032546;28;20230;-87
2023/06/03 09:35:04;;;;;;;7.22;2.40;;;;;;;;;;5032562;28;20226;-87
2023/06/03 09:37:32;;;;;;;3.58;2.63;;;;;;;;;;5033199;28;20245;-87
2023/06/03 09:40:05;;;;;;;4.15;2.80;;;;;;;;;;5014041;28;20233;-93
2023/06/03 09:42:45;;;;;;;4.13;2.13;;;;;;;;;;5039684;28;20314;-89
2023/06/03 09:45:25;;;;;;;3.15;2.30;;;;;;;;;;5022856;28;20242;-90
2023/06/03 09:47:52;;;;;;;2.92;2.65;;;;;;;;;;5032270;28;20309;-92
2023/06/03 09:50:27;;;;;;;2.95;2.20;;;;;;;;;;5024828;28;20230;-91
2023/06/03 09:52:55;;;;;;;3.67;2.28;;;;;;;;;;5034236;28;20696;-86
2023/06/03 09:55:33;;;;;;;4.40;2.40;;;;;;;;;;5031212;28;20700;-92
2023/06/03 09:58:06;;;;;;;6.10;2.60;;;;;;;;;;5031129;28;20250;-90
2023/06/03 10:00:34;;;;;;;7.57;2.92;;;;;;;;;;5029184;28;20222;-86
2023/06/03 10:03:09;;;;;;;3.40;2.50;;;;;;;;;;5031749;28;20211;-87
2023/06/03 10:05:37;;;;;;;3.03;2.13;;;;;;;;;;5022513;28;20264;-89
2023/06/03 10:08:08;;;;;;;3.00;2.15;;;;;;;;;;5024294;28;20245;-88
2023/06/03 10:10:55;;;;;;;3.33;2.53;;;;;;;;;;5022752;28;20237;-87
2023/06/03 10:13:24;;;;;;;2.97;2.22;;;;;;;;;;5018289;28;20221;-88
2023/06/03 10:15:53;;;;;;;4.28;2.60;;;;;;;;;;5029563;28;20234;-88
2023/06/03 10:18:36;;;;;;;2.97;2.30;;;;;;;;;;5025720;28;20222;-87
2023/06/03 10:21:07;;;;;;;2.58;2.35;;;;;;;;;;5014707;28;20261;-85
2023/06/03 10:23:37;;;;;;;3.63;2.50;;;;;;;;;;5031912;28;20213;-88
2023/06/03 10:26:07;;;;;;;4.40;2.60;;;;;;;;;;5030008;28;20230;-87
2023/06/03 10:28:37;;;;;;;3.70;2.45;;;;;;;;;;5023683;28;20277;-84
2023/06/03 10:31:05;;;;;;;4.38;2.50;;;;;;;;;;5025876;28;20218;-87
2023/06/03 10:33:34;;;;;;;3.97;2.92;;;;;;;;;;5027232;28;20644;-88
2023/06/03 10:36:04;;;;;;;2.83;2.42;;;;;;;;;;5031328;28;20223;-87
2023/06/03 10:38:33;;;;;;;3.03;2.40;;;;;;;;;;5031696;28;20226;-87
2023/06/03 10:41:01;;;;;;;3.60;2.60;;;;;;;;;;5030878;28;20242;-88
2023/06/03 10:43:35;;;;;;;2.95;2.30;;;;;;;;;;5035707;28;20256;-86
2023/06/03 10:46:11;;;;;;;4.88;2.72;;;;;;;;;;5026094;28;20234;-88
2023/06/03 10:48:40;;;;;;;3.10;2.40;;;;;;;;;;5027504;28;20713;-90
2023/06/03 10:51:12;;;;;;;4.90;2.40;;;;;;;;;;5033802;28;20247;-89
2023/06/03 10:53:49;;;;;;;5.25;2.70;;;;;;;;;;5035448;28;20210;-88
2023/06/03 10:56:23;;;;;;;3.83;2.58;;;;;;;;;;5019407;28;20229;-90
2023/06/03 10:59:02;;;;;;;3.17;2.58;;;;;;;;;;5016983;28;20238;-90
2023/06/03 11:01:51;;;;;;;4.13;2.25;;;;;;;;;;5028233;28;20234;-90
2023/06/03 11:04:20;;;;;;;3.95;2.40;;;;;;;;;;4993709;28;20207;-89
2023/06/03 11:06:52;;;;;;;6.63;2.88;;;;;;;;;;5036466;28;20207;-86
2023/06/03 11:09:31;;;;;;;3.83;2.70;;;;;;;;;;5031545;28;20238;-85
2023/06/03 11:12:03;;;;;;;5.13;2.60;;;;;;;;;;5027208;28;20214;-83
2023/06/03 11:14:49;;;;;;;5.10;2.22;;;;;;;;;;5024657;28;20245;-84
2023/06/03 11:17:19;;;;;;;3.15;2.50;;;;;;;;;;5027177;28;20209;-87
2023/06/03 11:19:51;;;;;;;3.88;2.42;;;;;;;;;;5027161;28;20283;-87
2023/06/03 11:22:38;;;;;;;5.28;2.28;;;;;;;;;;5043068;28;20235;-87
2023/06/03 11:25:06;;;;;;;5.95;2.72;;;;;;;;;;5023998;28;20231;-82
2023/06/03 11:27:35;;;;;;;5.25;2.85;;;;;;;;;;5026535;28;20281;-85
2023/06/03 11:30:07;;;;;;;2.63;2.10;;;;;;;;;;5030614;28;20231;-86
2023/06/03 11:32:36;;;;;;;3.33;2.40;;;;;;;;;;5018081;28;20215;-84
2023/06/03 11:35:22;;;;;;;6.22;2.53;;;;;;;;;;5025866;28;20695;-87
2023/06/03 11:37:52;;;;;;;4.28;2.40;;;;;;;;;;5018258;28;20227;-87
2023/06/03 11:40:20;;;;;;;3.35;2.60;;;;;;;;;;5034436;28;20373;-88
2023/06/03 11:43:02;;;;;;;4.47;2.90;;;;;;;;;;5027053;28;20206;-87
2023/06/03 11:45:29;;;;;;;3.67;2.53;;;;;;;;;;5033967;28;20736;-86
2023/06/03 11:47:59;;;;;;;5.07;2.85;;;;;;;;;;5027158;28;20266;-87
2023/06/03 11:50:26;;;;;;;4.05;2.40;;;;;;;;;;5032988;28;20697;-85
2023/06/03 11:52:54;;;;;;;3.83;2.63;;;;;;;;;;5025457;28;20234;-85
2023/06/03 11:55:24;;;;;;;3.13;2.42;;;;;;;;;;5031043;28;20229;-86
2023/06/03 11:57:51;;;;;;;2.53;2.25;;;;;;;;;;5026413;28;20227;-87
2023/06/03 12:00:19;;;;;;;4.60;2.42;;;;;;;;;;5029475;28;20241;-87
2023/06/03 12:02:46;;;;;;;6.13;2.70;;;;;;;;;;5029951;28;20241;-87
2023/06/03 12:05:15;;;;;;;7.45;2.60;;;;;;;;;;5018366;28;20260;-86
2023/06/03 12:07:43;;;;;;;2.50;2.30;;;;;;;;;;5033644;28;20581;-85
2023/06/03 12:10:11;;;;;;;5.32;2.42;;;;;;;;;;5033210;28;20262;-87
2023/06/03 12:12:50;;;;;;;4.85;2.40;;;;;;;;;;5033245;28;20251;-85
2023/06/03 12:15:17;;;;;;;4.20;2.50;;;;;;;;;;5025815;28;20227;-86
2023/06/03 12:17:44;;;;;;;3.83;2.22;;;;;;;;;;5034354;28;20226;-86
2023/06/03 12:20:12;;;;;;;3.58;2.53;;;;;;;;;;5025482;28;20229;-86
2023/06/03 12:22:40;;;;;;;4.22;2.80;;;;;;;;;;5033464;28;20206;-86
2023/06/03 12:25:07;;;;;;;5.03;2.60;;;;;;;;;;5032016;28;20230;-87
2023/06/03 12:27:34;;;;;;;9.43;2.65;;;;;;;;;;5033681;28;20238;-86
2023/06/03 12:30:02;;;;;;;3.10;2.50;;;;;;;;;;5032807;28;20712;-88
2023/06/03 12:32:31;;;;;;;2.78;2.40;;;;;;;;;;5026748;28;20326;-86
2023/06/03 12:34:58;;;;;;;3.25;2.30;;;;;;;;;;5032351;28;20712;-86
2023/06/03 12:37:27;;;;;;;3.08;2.33;;;;;;;;;;5032931;28;20223;-83
2023/06/03 12:39:56;;;;;;;3.25;2.47;;;;;;;;;;5031775;28;20287;-86
2023/06/03 12:42:35;;;;;;;5.47;2.50;;;;;;;;;;5028471;28;20195;-86
2023/06/03 12:45:02;;;;;;;4.10;2.53;;;;;;;;;;5023896;28;20297;-84
2023/06/03 12:47:30;;;;;;;5.20;2.90;;;;;;;;;;5032968;28;20237;-85
2023/06/03 12:52:57;;;;;;;3.50;2.40;;;;;;;;;;5505039;23;20230;-77
2023/06/03 12:55:26;;;;;;;4.53;2.47;;;;;;;;;;5038044;28;20305;-78
2023/06/03 12:57:53;;;;;;;3.38;2.90;;;;;;;;;;5051209;28;20752;-80
2023/06/03 13:00:21;;;;;;;2.90;2.60;;;;;;;;;;5050553;28;20234;-78
2023/06/03 13:02:49;;;;;;;2.75;2.55;;;;;;;;;;5051101;28;20718;-79
2023/06/03 13:05:16;;;;;;;4.55;3.20;;;;;;;;;;5050251;28;20704;-76
2023/06/03 13:07:45;;;;;;;3.10;2.50;;;;;;;;;;5051737;28;20217;-80
2023/06/03 13:10:12;;;;;;;4.68;2.80;;;;;;;;;;5049969;28;20237;-79
2023/06/03 13:12:41;;;;;;;4.03;2.60;;;;;;;;;;5050891;28;20237;-78
2023/06/03 13:15:08;;;;;;;3.42;2.65;;;;;;;;;;5048576;28;20233;-76
2023/06/03 13:17:36;;;;;;;3.53;2.30;;;;;;;;;;5051214;28;20209;-78
2023/06/03 13:20:05;;;;;;;3.42;2.70;;;;;;;;;;5050610;28;20383;-77
2023/06/03 13:22:33;;;;;;;10.75;2.83;;;;;;;;;;5046648;28;20230;-78
2023/06/03 13:25:00;;;;;;;3.95;2.30;;;;;;;;;;5039014;28;20369;-78
2023/06/03 13:27:27;;;;;;;3.33;2.80;;;;;;;;;;5041984;28;20225;-79
2023/06/03 13:29:56;;;;;;;3.78;2.67;;;;;;;;;;5042199;28;20237;-77
2023/06/03 13:32:23;;;;;;;3.72;2.50;;;;;;;;;;5050226;28;20302;-80
2023/06/03 13:34:51;;;;;;;3.85;2.95;;;;;;;;;;5050390;28;20238;-78
2023/06/03 13:37:18;;;;;;;4.30;2.42;;;;;;;;;;5050260;28;20237;-77
2023/06/03 13:39:45;;;;;;;4.50;2.28;;;;;;;;;;5050318;28;20252;-79
2023/06/03 13:42:12;;;;;;;2.60;2.40;;;;;;;;;;5050167;28;20237;-77
2023/06/03 13:44:39;;;;;;;3.30;2.30;;;;;;;;;;5050572;28;20237;-80
2023/06/03 13:47:09;;;;;;;4.75;2.72;;;;;;;;;;5049527;28;20213;-79
2023/06/03 13:49:35;;;;;;;3.08;2.45;;;;;;;;;;5047292;28;20234;-76
2023/06/03 13:52:02;;;;;;;4.22;2.97;;;;;;;;;;5050292;28;20226;-78
2023/06/03 13:54:30;;;;;;;2.85;2.40;;;;;;;;;;5049804;28;20249;-76
2023/06/03 13:56:57;;;;;;;4.00;2.75;;;;;;;;;;5050691;28;20221;-78
2023/06/03 13:59:24;;;;;;;3.78;2.55;;;;;;;;;;5049392;28;20291;-78
2023/06/03 14:01:52;;;;;;;3.00;2.30;;;;;;;;;;5050201;28;20241;-79
2023/06/03 14:04:20;;;;;;;2.70;2.40;;;;;;;;;;5049917;28;20296;-80
2023/06/03 14:06:47;;;;;;;4.18;2.58;;;;;;;;;;5049958;28;20210;-78
2023/06/03 14:09:14;;;;;;;4.78;2.97;;;;;;;;;;5041669;28;20624;-77
2023/06/03 14:11:41;;;;;;;3.78;2.60;;;;;;;;;;5038329;28;20273;-84
2023/06/03 14:14:09;;;;;;;3.45;2.38;;;;;;;;;;5030805;28;20642;-82
2023/06/03 14:16:35;;;;;;;2.45;2.22;;;;;;;;;;5042069;28;20242;-83
2023/06/03 14:19:03;;;;;;;4.68;2.92;;;;;;;;;;5043585;28;20268;-83
2023/06/03 14:21:31;;;;;;;5.10;2.90;;;;;;;;;;5045533;28;20709;-84
2023/06/03 14:23:58;;;;;;;3.20;2.33;;;;;;;;;;5048123;28;20626;-81
2023/06/03 14:26:26;;;;;;;2.72;2.50;;;;;;;;;;5050713;28;20854;-82
2023/06/03 14:28:53;;;;;;;6.50;2.58;;;;;;;;;;5049293;28;20210;-82
2023/06/03 14:31:20;;;;;;;5.05;3.38;;;;;;;;;;5045602;28;20238;-82
2023/06/03 14:33:47;;;;;;;6.55;2.38;;;;;;;;;;5051992;28;20291;-79
2023/06/03 14:36:14;;;;;;;4.15;2.58;;;;;;;;;;5043215;28;20230;-79
2023/06/03 14:38:43;;;;;;;4.68;2.55;;;;;;;;;;5041929;28;20214;-80
2023/06/03 14:41:10;;;;;;;6.03;2.58;;;;;;;;;;5041560;28;20277;-79
2023/06/03 14:43:37;;;;;;;3.95;2.80;;;;;;;;;;5038249;28;20232;-80
2023/06/03 14:46:04;;;;;;;2.60;2.40;;;;;;;;;;5045336;28;20691;-80
2023/06/03 14:48:31;;;;;;;3.53;2.45;;;;;;;;;;5050861;28;20613;-79
2023/06/03 14:50:59;;;;;;;3.50;2.38;;;;;;;;;;5048912;28;20256;-80
2023/06/03 14:53:28;;;;;;;3.50;2.22;;;;;;;;;;5043372;28;20595;-79
2023/06/03 14:55:57;;;;;;;4.65;2.42;;;;;;;;;;5042141;28;20318;-78